Durham, NC

4:28 AM EDT on September 05, 2015 (GMT -0400)
Leesville Hollow | | Change Station
CLOSE
Current Station
Personal Weather Station
Location: Raleigh, NC
Elevation: 420 ft
Nearby Weather Stations

Elev 420 ft 35.92 °N, 78.76 °W | Updated 42 seconds ago

Scattered Clouds
Scattered Clouds
67.3 °F
Feels Like 67.3 °F
N
0.0
Wind Variable Wind from East

Today
High -- | Low -- °F
--% Chance of Precip.
Yesterday
High -- | Low -- °F
Precip. -- in
6:49 AM 7:37 PM
Waning Gibbous, 51% visible
Pressure 30.08 in
Visibility 5.0 miles
Clouds Scattered Clouds 25000 ft
Dew Point 64 °F
Humidity 90%
Rainfall 0.00 in
Snow Depth Not available.
UV 0 out of 12
Pollen 8.50 out of 12
Air Quality Not available.
Flu Activity Not available.
METAR KRDU 050751Z 05005KT 5SM BR SCT250 21/20 A3009 RMK AO2 SLP186 T02110200
Pressure 30.08 in
Visibility 5.0 miles
Clouds Scattered Clouds 25000 ft
Dew Point 64 °F
Humidity 90%
Rainfall 0.00 in
Snow Depth Not available.
UV 0 out of 12
Pollen 8.50 out of 12
Air Quality Not available.
Flu Activity Not available.
METAR KRDU 050751Z 05005KT 5SM BR SCT250 21/20 A3009 RMK AO2 SLP186 T02110200

10-Day Weather Forecast

×

Almanac

Astronomy

Sep. 05, 2015 Rise Set
Actual Time
Civil Twilight
Nautical Twilight
Astronomical Twilight
Moon
Length of Visible Light
Length of Day
Tomorrow will be .
, % of the Moon is Illuminated

Today's Extremes

State Highs State Lows

Community

WunderPhotos

Upload Photos

1,852,439 photos uploaded!

WunderBlogs® & News

Nearby

Air Quality

  Air Quality AQ Index Pollutant
Not available.

Snow Depth

Station Depth Elevation

Earthquake Activity

City Distance Mag. Time & Date
Minimum magnitude displayed is 2.5.

Coastal Water Temperatures

Place Temperature

Stations

Nearby Weather Stations

Station Location Temp. Windchill Dew Point Humidity Wind Precip. Elev Updated Type